Time;durP1;ratioP1;P1;durP2;ratioP2;P2;SDS_P1;SDS_P2;PMS_P1;PMS_P2;Temp;Humidity;BMP_temperature;BMP_pressure;BME280_temperature;BME280_humidity;BME280_pressure;Samples;Min_cycle;Max_cycle;Signal;HPM_P1;HPM_P2
2022/04/25 00:01:04;;;;;;;8.03;5.07;;;;;;;6.99;98.07;99659.34;5073257;28;20171;-71
2022/04/25 00:03:29;;;;;;;7.87;6.50;;;;;;;6.88;98.87;99652.53;5073198;28;20182;-72
2022/04/25 00:05:54;;;;;;;8.87;5.00;;;;;;;6.97;98.81;99649.91;5073366;28;20167;-71
2022/04/25 00:08:20;;;;;;;5.77;5.23;;;;;;;7.07;98.50;99650.44;5073130;28;20530;-71
2022/04/25 00:10:46;;;;;;;7.80;5.27;;;;;;;7.08;98.11;99657.47;5073124;28;20220;-71
2022/04/25 00:13:13;;;;;;;6.37;5.80;;;;;;;7.04;97.93;99652.97;5073136;28;20186;-72
2022/04/25 00:15:38;;;;;;;6.77;5.37;;;;;;;7.07;97.93;99657.78;5073298;28;20181;-72
2022/04/25 00:18:04;;;;;;;7.67;6.13;;;;;;;7.05;97.82;99655.38;5054853;28;20178;-72
2022/04/25 00:20:30;;;;;;;8.73;5.60;;;;;;;7.00;97.62;99669.09;5073349;28;20216;-72
2022/04/25 00:22:55;;;;;;;5.63;5.13;;;;;;;6.98;98.24;99667.81;5073457;28;20646;-72
2022/04/25 00:25:20;;;;;;;5.97;4.77;;;;;;;6.89;98.27;99664.19;5072752;28;20298;-72
2022/04/25 00:27:46;;;;;;;8.50;5.40;;;;;;;6.85;98.73;99666.72;5072696;28;20179;-72
2022/04/25 00:30:11;;;;;;;5.67;5.03;;;;;;;6.83;98.94;99668.94;5072823;28;20213;-72
2022/04/25 00:32:37;;;;;;;8.70;5.50;;;;;;;6.82;98.67;99670.84;5072603;28;20186;-73
2022/04/25 00:35:03;;;;;;;8.03;5.20;;;;;;;6.88;98.67;99666.09;5072586;28;20181;-72
2022/04/25 00:37:29;;;;;;;9.23;6.13;;;;;;;6.76;98.90;99663.13;5072535;28;20178;-71
2022/04/25 00:39:54;;;;;;;7.23;4.50;;;;;;;6.76;99.29;99657.69;5072747;28;20511;-71
2022/04/25 00:42:20;;;;;;;8.17;5.53;;;;;;;6.73;99.66;99650.16;5072499;28;20194;-72
2022/04/25 00:44:45;;;;;;;7.30;5.50;;;;;;;6.75;100.00;99656.06;5072889;28;20174;-72
2022/04/25 00:47:11;;;;;;;12.10;6.17;;;;;;;6.66;100.00;99649.78;5072436;28;20705;-72
2022/04/25 00:49:37;;;;;;;6.57;5.20;;;;;;;6.74;100.00;99654.47;5072718;28;20213;-72
2022/04/25 00:52:03;;;;;;;6.07;5.47;;;;;;;6.66;100.00;99642.44;5072659;28;20583;-72
2022/04/25 00:54:28;;;;;;;5.50;5.00;;;;;;;6.59;100.00;99650.19;5072533;28;20182;-71
2022/04/25 00:56:54;;;;;;;8.40;5.63;;;;;;;6.60;100.00;99656.41;5072353;28;20257;-72
2022/04/25 00:59:21;;;;;;;7.00;5.00;;;;;;;6.68;100.00;99661.13;5072549;28;20301;-72
2022/04/25 01:01:47;;;;;;;6.53;5.60;;;;;;;6.68;100.00;99667.38;5071809;28;20653;-72
2022/04/25 01:04:13;;;;;;;8.20;5.57;;;;;;;6.63;100.00;99670.16;5072331;28;20170;-71
2022/04/25 01:06:39;;;;;;;7.23;5.37;;;;;;;6.75;100.00;99669.66;5072050;28;20175;-72
2022/04/25 01:09:05;;;;;;;6.03;5.07;;;;;;;6.80;100.00;99673.06;5071790;28;20198;-72
2022/04/25 01:11:31;;;;;;;7.40;5.90;;;;;;;6.73;100.00;99669.16;5072365;28;20175;-72
2022/04/25 01:13:56;;;;;;;8.17;5.77;;;;;;;6.63;100.00;99670.16;5072481;28;20184;-73
2022/04/25 01:16:22;;;;;;;8.43;5.97;;;;;;;6.56;100.00;99665.16;5071707;28;20170;-71
2022/04/25 01:18:47;;;;;;;11.43;6.10;;;;;;;6.63;100.00;99677.50;5071619;28;20174;-71
2022/04/25 01:21:14;;;;;;;7.60;5.63;;;;;;;6.70;100.00;99678.72;5071993;28;20175;-72
2022/04/25 01:29:09;;;;;;;9.33;5.83;;;;;;;6.67;100.00;99676.63;5071617;28;20684;-72
2022/04/25 01:31:34;;;;;;;7.17;5.37;;;;;;;6.72;100.00;99678.41;5071564;28;20178;-72
2022/04/25 01:34:00;;;;;;;6.93;6.00;;;;;;;6.73;100.00;99677.31;5071556;28;20175;-72
2022/04/25 01:36:25;;;;;;;9.47;6.00;;;;;;;6.74;100.00;99681.63;5053626;28;20265;-72
2022/04/25 01:38:51;;;;;;;7.60;5.30;;;;;;;6.71;100.00;99680.31;5071390;28;20174;-72
2022/04/25 01:41:17;;;;;;;6.47;5.63;;;;;;;6.73;100.00;99685.44;5071561;28;20182;-72
2022/04/25 01:43:42;;;;;;;6.43;5.50;;;;;;;6.64;100.00;99679.13;5071434;28;20201;-72
2022/04/25 01:46:07;;;;;;;8.37;6.20;;;;;;;6.68;100.00;99683.66;5071474;28;20177;-73
2022/04/25 01:48:33;;;;;;;7.30;6.00;;;;;;;6.58;100.00;99689.28;5071003;28;20689;-72
2022/04/25 01:50:58;;;;;;;8.90;6.40;;;;;;;6.60;100.00;99680.84;5071356;28;20262;-72
2022/04/25 01:53:24;;;;;;;5.83;5.33;;;;;;;6.65;100.00;99686.94;5071492;28;20166;-72
2022/04/25 01:55:49;;;;;;;14.67;6.43;;;;;;;6.65;100.00;99689.66;5071194;28;20522;-71
2022/04/25 01:58:15;;;;;;;6.77;6.10;;;;;;;6.51;100.00;99686.19;5071105;28;20645;-72
2022/04/25 02:00:40;;;;;;;5.87;5.37;;;;;;;6.55;100.00;99687.19;5070680;28;20179;-72
2022/04/25 02:03:05;;;;;;;5.87;4.97;;;;;;;6.63;100.00;99689.16;5071054;28;20274;-71
2022/04/25 02:05:31;;;;;;;9.93;5.70;;;;;;;6.69;100.00;99687.16;5071225;28;20183;-71
2022/04/25 02:07:57;;;;;;;9.47;5.50;;;;;;;6.56;100.00;99686.06;5070695;28;20202;-72
2022/04/25 02:10:22;;;;;;;7.00;6.07;;;;;;;6.50;100.00;99679.94;5070968;28;20548;-72
2022/04/25 02:12:47;;;;;;;6.40;5.83;;;;;;;6.47;100.00;99680.53;5070844;28;20181;-72
2022/04/25 02:15:13;;;;;;;9.33;6.93;;;;;;;6.53;100.00;99681.25;5070673;28;20178;-71
2022/04/25 02:17:39;;;;;;;9.30;5.57;;;;;;;6.62;100.00;99678.63;5070640;28;20660;-73
2022/04/25 02:20:05;;;;;;;7.10;6.07;;;;;;;6.58;100.00;99681.16;5070451;28;20634;-72
2022/04/25 02:22:34;;;;;;;8.13;6.63;;;;;;;6.52;100.00;99675.03;5052902;28;20174;-72
2022/04/25 02:25:00;;;;;;;7.40;6.53;;;;;;;6.57;100.00;99677.63;5070709;28;20603;-72
2022/04/25 02:27:25;;;;;;;9.13;5.83;;;;;;;6.64;100.00;99677.19;5052328;28;20190;-72
2022/04/25 02:29:53;;;;;;;11.00;7.10;;;;;;;6.65;100.00;99680.72;5070551;28;20206;-72
2022/04/25 02:32:19;;;;;;;7.47;6.40;;;;;;;6.60;100.00;99678.13;5070479;28;20262;-72
2022/04/25 02:34:44;;;;;;;8.10;7.27;;;;;;;6.47;100.00;99680.53;5070622;28;20256;-71
2022/04/25 02:37:09;;;;;;;7.17;6.53;;;;;;;6.48;100.00;99674.00;5070596;28;20359;-71
2022/04/25 02:39:35;;;;;;;12.53;7.30;;;;;;;6.53;100.00;99673.13;5070509;28;20258;-72
2022/04/25 02:42:00;;;;;;;8.47;6.90;;;;;;;6.46;100.00;99681.66;5070541;28;20224;-72
2022/04/25 02:44:25;;;;;;;9.80;7.37;;;;;;;6.45;100.00;99677.34;5070660;28;20709;-72
2022/04/25 02:46:51;;;;;;;9.10;6.40;;;;;;;6.55;100.00;99673.63;5070482;28;20178;-72
2022/04/25 02:49:16;;;;;;;7.97;6.83;;;;;;;6.36;100.00;99678.34;5070262;28;20289;-72
2022/04/25 02:51:41;;;;;;;8.53;7.20;;;;;;;6.43;100.00;99676.03;5070504;28;20181;-72
2022/04/25 02:54:07;;;;;;;8.13;6.40;;;;;;;6.54;100.00;99680.16;5070786;28;20254;-72
2022/04/25 02:56:33;;;;;;;8.13;7.27;;;;;;;6.33;100.00;99685.16;5070334;28;20162;-73
2022/04/25 02:58:58;;;;;;;7.10;6.50;;;;;;;6.28;100.00;99688.00;5070369;28;20517;-72
2022/04/25 03:01:23;;;;;;;8.30;7.60;;;;;;;6.29;100.00;99686.09;5052164;28;20193;-72
2022/04/25 03:03:49;;;;;;;6.87;6.03;;;;;;;6.26;100.00;99685.59;5070427;28;20573;-71
2022/04/25 03:06:14;;;;;;;8.60;7.83;;;;;;;6.29;100.00;99684.19;5070478;28;20204;-71
2022/04/25 03:08:40;;;;;;;9.20;7.57;;;;;;;6.27;100.00;99689.09;5070143;28;20709;-72
2022/04/25 03:11:10;;;;;;;8.53;7.73;;;;;;;6.24;100.00;99693.22;5070297;28;20690;-72
2022/04/25 03:13:38;;;;;;;9.63;8.03;;;;;;;6.17;100.00;99694.72;5070379;28;20181;-72
2022/04/25 03:16:05;;;;;;;10.67;7.67;;;;;;;6.18;100.00;99696.31;5070057;28;20630;-71
2022/04/25 03:18:31;;;;;;;9.60;8.67;;;;;;;6.15;100.00;99696.94;5069913;28;20175;-72
2022/04/25 03:20:56;;;;;;;11.03;9.13;;;;;;;6.13;100.00;99688.28;5070152;28;20654;-72
2022/04/25 03:23:23;;;;;;;10.20;9.03;;;;;;;6.14;100.00;99689.91;5069884;28;20170;-72
2022/04/25 03:25:50;;;;;;;11.00;8.73;;;;;;;6.14;100.00;99696.13;5070256;28;20174;-72
2022/04/25 03:28:16;;;;;;;9.27;8.20;;;;;;;6.13;100.00;99701.84;5069729;28;20673;-72
2022/04/25 03:30:41;;;;;;;14.80;8.83;;;;;;;6.14;100.00;99706.16;5070089;28;20175;-72
2022/04/25 03:33:10;;;;;;;9.03;8.23;;;;;;;6.12;100.00;99695.63;5071643;28;20634;-72
2022/04/25 03:35:37;;;;;;;10.07;9.07;;;;;;;6.08;100.00;99707.38;5074227;28;20185;-72
2022/04/25 03:38:02;;;;;;;10.33;9.33;;;;;;;6.06;100.00;99698.72;5073416;28;20173;-71
2022/04/25 03:40:28;;;;;;;10.20;8.13;;;;;;;6.04;100.00;99701.72;5069059;28;20183;-72
2022/04/25 03:42:55;;;;;;;8.57;7.73;;;;;;;6.06;100.00;99702.22;5073517;28;20228;-72
2022/04/25 03:45:21;;;;;;;8.13;7.33;;;;;;;6.10;100.00;99702.47;5073635;28;20178;-71
2022/04/25 03:47:47;;;;;;;7.83;7.17;;;;;;;6.00;100.00;99699.94;5073559;28;20178;-71
2022/04/25 03:50:14;;;;;;;8.63;7.80;;;;;;;6.04;100.00;99706.34;5073550;28;20562;-72
2022/04/25 03:52:42;;;;;;;9.23;8.43;;;;;;;5.96;100.00;99705.16;5073513;28;20232;-72
2022/04/25 03:57:53;;;;;;;10.33;9.33;;;;;;;6.01;100.00;99715.88;5073429;28;20558;-72
2022/04/25 04:00:19;;;;;;;9.13;8.33;;;;;;;5.93;100.00;99717.41;5073444;28;20171;-71
2022/04/25 04:02:45;;;;;;;9.73;8.63;;;;;;;5.88;100.00;99720.16;5073821;28;20178;-71
2022/04/25 04:05:12;;;;;;;9.17;8.37;;;;;;;5.91;100.00;99714.16;5073340;28;20177;-72
2022/04/25 04:07:38;;;;;;;13.27;9.07;;;;;;;5.90;100.00;99720.69;5073150;28;20642;-71
2022/04/25 04:10:03;;;;;;;9.47;8.43;;;;;;;5.90;100.00;99723.41;5073363;28;20271;-71
2022/04/25 04:12:36;;;;;;;11.97;9.13;;;;;;;5.92;100.00;99726.59;5055311;28;20174;-72
2022/04/25 04:15:05;;;;;;;10.73;8.90;;;;;;;5.89;100.00;99735.31;5073383;28;20175;-71
2022/04/25 04:17:31;;;;;;;9.73;8.73;;;;;;;5.88;100.00;99722.84;5073163;28;20178;-72
2022/04/25 04:19:56;;;;;;;11.23;9.13;;;;;;;5.90;100.00;99731.53;5073312;28;20181;-71
2022/04/25 04:22:23;;;;;;;11.00;9.87;;;;;;;5.93;100.00;99735.53;5073129;28;20177;-71
2022/04/25 04:24:49;;;;;;;10.37;9.33;;;;;;;5.93;100.00;99730.94;5072638;28;20662;-71
2022/04/25 04:27:15;;;;;;;10.40;9.17;;;;;;;5.96;100.00;99738.47;5072525;28;20212;-71
2022/04/25 04:29:40;;;;;;;12.07;9.70;;;;;;;5.93;100.00;99739.09;5072647;28;20779;-72
2022/04/25 04:32:07;;;;;;;13.00;9.30;;;;;;;5.94;100.00;99746.13;5072842;28;20535;-71
2022/04/25 04:34:34;;;;;;;11.40;10.30;;;;;;;5.91;100.00;99743.97;5072840;28;20567;-71
2022/04/25 04:37:00;;;;;;;10.57;9.67;;;;;;;6.01;100.00;99753.03;5072940;28;20460;-71
2022/04/25 04:39:25;;;;;;;11.43;10.43;;;;;;;5.98;100.00;99751.75;5072762;28;20518;-71
2022/04/25 04:41:51;;;;;;;10.50;9.50;;;;;;;6.04;100.00;99755.16;5072700;28;20182;-73
2022/04/25 04:44:17;;;;;;;10.67;9.77;;;;;;;6.04;100.00;99758.66;5072215;28;20166;-73
2022/04/25 04:46:43;;;;;;;11.13;10.13;;;;;;;5.95;100.00;99764.00;5072541;28;20174;-71
2022/04/25 04:49:08;;;;;;;9.73;8.80;;;;;;;6.01;100.00;99766.59;5072420;28;20206;-72
2022/04/25 04:51:34;;;;;;;10.23;9.33;;;;;;;5.97;100.00;99778.06;5072447;28;20184;-72
2022/04/25 04:53:59;;;;;;;11.43;10.33;;;;;;;5.97;100.00;99778.06;5072483;28;20202;-72
2022/04/25 04:56:32;;;;;;;10.17;9.20;;;;;;;5.93;100.00;99770.78;5072507;28;20524;-72
2022/04/25 04:58:58;;;;;;;11.67;10.50;;;;;;;5.92;100.00;99780.81;5072438;28;20273;-71
2022/04/25 05:01:24;;;;;;;12.33;11.07;;;;;;;5.99;100.00;99783.16;5071866;28;20249;-72
2022/04/25 05:03:49;;;;;;;12.50;11.37;;;;;;;5.99;100.00;99782.38;5072283;28;20170;-72
2022/04/25 05:06:15;;;;;;;13.07;11.87;;;;;;;5.92;100.00;99783.53;5072271;28;20174;-71
2022/04/25 05:08:40;;;;;;;12.27;11.07;;;;;;;6.04;100.00;99780.38;5071917;28;20222;-71
2022/04/25 05:11:08;;;;;;;12.67;11.37;;;;;;;5.98;100.00;99789.69;5072251;28;20178;-71
2022/04/25 05:13:34;;;;;;;11.73;10.63;;;;;;;5.95;100.00;99785.69;5072165;28;20514;-72
2022/04/25 05:15:59;;;;;;;16.17;10.37;;;;;;;6.04;100.00;99790.41;5072195;28;20254;-72
2022/04/25 05:18:24;;;;;;;12.20;11.07;;;;;;;5.89;100.00;99792.25;5071789;28;20213;-72
2022/04/25 05:20:50;;;;;;;15.23;12.70;;;;;;;5.89;100.00;99792.25;5072041;28;20171;-72
2022/04/25 05:23:16;;;;;;;15.20;12.23;;;;;;;5.88;100.00;99795.25;5072020;28;20243;-72
2022/04/25 05:25:42;;;;;;;19.40;11.40;;;;;;;5.92;100.00;99797.09;5072059;28;20174;-72
2022/04/25 05:28:07;;;;;;;13.77;12.47;;;;;;;5.84;100.00;99795.03;5071556;28;20214;-71
2022/04/25 05:30:32;;;;;;;16.67;13.03;;;;;;;5.89;100.00;99803.09;5071896;28;20600;-72
2022/04/25 05:33:02;;;;;;;12.90;11.70;;;;;;;5.89;100.00;99799.56;5071833;28;20178;-72
2022/04/25 05:35:32;;;;;;;13.33;11.93;;;;;;;5.90;100.00;99803.91;5053811;28;20699;-72
2022/04/25 05:37:57;;;;;;;10.90;9.23;;;;;;;5.85;100.00;99812.09;5071510;28;20197;-72
2022/04/25 05:40:24;;;;;;;11.73;10.50;;;;;;;5.88;100.00;99806.09;5053871;28;20631;-72
2022/04/25 05:42:50;;;;;;;10.83;9.83;;;;;;;5.86;100.00;99806.38;5071672;28;20182;-72
2022/04/25 05:45:18;;;;;;;12.37;10.93;;;;;;;5.83;100.00;99808.91;5071387;28;20174;-72
2022/04/25 05:47:44;;;;;;;13.27;9.57;;;;;;;5.91;100.00;99803.63;5070889;28;20206;-72
2022/04/25 05:52:55;;;;;;;11.80;8.47;;;;;;;5.93;100.00;99804.16;5059913;28;20187;-72
2022/04/25 05:55:21;;;;;;;12.40;9.50;;;;;;;5.94;100.00;99805.75;5075047;28;20199;-71
2022/04/25 05:57:47;;;;;;;9.33;8.43;;;;;;;5.92;100.00;99810.66;5071118;28;20174;-72
2022/04/25 06:00:14;;;;;;;8.47;7.77;;;;;;;6.04;100.00;99809.38;5070909;28;20186;-72
2022/04/25 06:02:41;;;;;;;11.13;8.03;;;;;;;5.96;100.00;99819.81;5070544;28;20182;-72
2022/04/25 06:05:09;;;;;;;8.63;7.83;;;;;;;5.99;100.00;99823.03;5071404;28;20197;-72
2022/04/25 06:07:36;;;;;;;11.63;8.63;;;;;;;6.03;100.00;99829.47;5071120;28;20348;-71
2022/04/25 06:10:03;;;;;;;9.57;8.57;;;;;;;6.09;100.00;99833.72;5071331;28;20270;-72
2022/04/25 06:12:32;;;;;;;8.73;7.83;;;;;;;5.97;100.00;99836.88;5053333;28;20263;-72
2022/04/25 06:14:58;;;;;;;8.73;7.93;;;;;;;5.93;100.00;99836.69;5070844;28;20174;-72
2022/04/25 06:17:23;;;;;;;8.53;7.80;;;;;;;5.88;100.00;99838.63;5070756;28;20602;-72
2022/04/25 06:19:49;;;;;;;8.60;7.50;;;;;;;5.87;100.00;99839.72;5070872;28;20196;-74
2022/04/25 06:22:17;;;;;;;9.40;8.60;;;;;;;5.90;100.00;99841.88;5070846;28;20204;-72
2022/04/25 06:24:43;;;;;;;8.83;8.10;;;;;;;5.80;100.00;99840.13;5070746;28;20174;-74
2022/04/25 06:27:09;;;;;;;8.83;7.93;;;;;;;5.79;100.00;99843.13;5070449;28;20186;-71
2022/04/25 06:29:35;;;;;;;8.80;8.00;;;;;;;5.80;100.00;99842.81;5065499;28;20234;-72
2022/04/25 06:32:03;;;;;;;9.30;8.50;;;;;;;5.85;100.00;99839.22;5070555;28;20264;-72
2022/04/25 06:34:28;;;;;;;7.73;7.00;;;;;;;5.86;100.00;99844.34;5070954;28;20226;-72
2022/04/25 06:36:53;;;;;;;8.17;7.40;;;;;;;5.83;100.00;99841.41;5070693;28;20658;-72
2022/04/25 06:39:19;;;;;;;9.33;8.63;;;;;;;5.92;100.00;99851.31;5070645;28;20170;-72
2022/04/25 06:41:45;;;;;;;6.97;6.37;;;;;;;5.84;100.00;99857.38;5071228;28;20183;-72
2022/04/25 06:44:11;;;;;;;10.93;8.00;;;;;;;5.89;100.00;99851.06;5070712;28;20231;-72
2022/04/25 06:46:36;;;;;;;9.23;8.43;;;;;;;5.88;100.00;99860.31;5070615;28;20178;-72
2022/04/25 06:49:19;;;;;;;8.30;7.60;;;;;;;5.89;100.00;99857.28;5070605;28;20198;-72
2022/04/25 06:51:46;;;;;;;9.40;8.50;;;;;;;5.96;100.00;99862.41;5070663;28;20631;-71
2022/04/25 06:54:13;;;;;;;9.93;8.50;;;;;;;5.89;100.00;99860.00;5070706;28;20254;-73
2022/04/25 06:56:39;;;;;;;9.03;8.20;;;;;;;5.89;100.00;99861.91;5070321;28;20256;-71
2022/04/25 06:59:04;;;;;;;9.87;9.07;;;;;;;5.99;100.00;99867.22;5070612;28;20798;-71
2022/04/25 07:01:30;;;;;;;11.10;8.63;;;;;;;5.91;100.00;99865.16;5070434;28;20534;-73
2022/04/25 07:03:55;;;;;;;10.20;9.37;;;;;;;5.97;100.00;99858.59;5070468;28;20171;-71
2022/04/25 07:06:20;;;;;;;10.70;9.60;;;;;;;5.90;100.00;99872.50;5070878;28;20662;-72
2022/04/25 07:08:45;;;;;;;9.57;8.73;;;;;;;5.97;100.00;99864.00;5069474;28;20637;-72
2022/04/25 07:11:11;;;;;;;11.70;9.73;;;;;;;5.95;100.00;99872.44;5074440;28;20269;-72
2022/04/25 07:13:36;;;;;;;10.47;9.33;;;;;;;5.98;100.00;99871.03;5074541;28;20190;-72
2022/04/25 07:16:01;;;;;;;10.27;9.27;;;;;;;6.02;100.00;99877.47;5074618;28;20383;-71
2022/04/25 07:18:27;;;;;;;9.00;8.20;;;;;;;6.02;100.00;99872.06;5074131;28;20261;-72
2022/04/25 07:20:52;;;;;;;9.70;8.60;;;;;;;6.03;100.00;99873.66;5074341;28;20178;-73
2022/04/25 07:28:48;;;;;;;10.77;9.80;;;;;;;5.94;100.00;99884.38;5074348;28;20198;-75
2022/04/25 07:31:15;;;;;;;12.03;9.53;;;;;;;5.94;100.00;99892.53;5073920;28;20258;-72
2022/04/25 07:33:43;;;;;;;9.90;8.90;;;;;;;6.02;100.00;99887.50;5073972;28;20860;-72
2022/04/25 07:36:09;;;;;;;9.53;8.63;;;;;;;6.05;100.00;99885.00;5074016;28;20177;-72
2022/04/25 07:38:35;;;;;;;9.57;8.77;;;;;;;6.09;100.00;99887.97;5056072;28;20171;-72
2022/04/25 07:41:01;;;;;;;11.43;10.43;;;;;;;6.05;100.00;99881.50;5073922;28;20228;-72
2022/04/25 07:43:27;;;;;;;10.60;9.70;;;;;;;6.04;100.00;99888.81;5073897;28;20549;-72
2022/04/25 07:45:53;;;;;;;9.70;8.80;;;;;;;6.12;100.00;99890.06;5073855;28;20194;-72
2022/04/25 07:48:18;;;;;;;9.57;8.67;;;;;;;6.27;100.00;99884.41;5072941;28;20582;-73
2022/04/25 07:50:44;;;;;;;10.67;7.93;;;;;;;6.37;100.00;99895.09;5070257;28;20212;-72
2022/04/25 07:53:09;;;;;;;9.00;8.20;;;;;;;6.47;100.00;99888.66;5073293;28;20220;-72
2022/04/25 07:55:35;;;;;;;11.63;7.83;;;;;;;6.41;100.00;99898.81;5072121;28;20179;-72
2022/04/25 07:58:01;;;;;;;12.47;8.23;;;;;;;6.53;100.00;99898.34;5072996;28;20167;-72
2022/04/25 08:00:27;;;;;;;8.83;8.03;;;;;;;6.63;100.00;99903.59;5072853;28;20182;-72
2022/04/25 08:02:52;;;;;;;10.10;9.10;;;;;;;6.67;100.00;99906.53;5073364;28;20287;-72
2022/04/25 08:05:18;;;;;;;10.27;8.33;;;;;;;6.77;100.00;99907.13;5073362;28;20650;-73
2022/04/25 08:07:43;;;;;;;10.43;9.50;;;;;;;6.76;100.00;99915.56;5072827;28;20177;-72
2022/04/25 08:10:08;;;;;;;10.93;9.83;;;;;;;6.59;100.00;99918.06;5071787;28;20296;-72
2022/04/25 08:18:04;;;;;;;12.70;9.17;;;;;;;6.73;100.00;99924.31;5071834;28;20232;-72
2022/04/25 08:20:35;;;;;;;11.07;9.20;;;;;;;6.65;100.00;99922.28;5072977;28;20170;-72
2022/04/25 08:23:03;;;;;;;11.17;9.93;;;;;;;6.70;100.00;99920.31;5071705;28;20186;-72
2022/04/25 08:25:30;;;;;;;12.20;10.53;;;;;;;6.65;100.00;99931.22;5073201;28;20181;-72
2022/04/25 08:27:59;;;;;;;10.37;9.37;;;;;;;6.55;100.00;99932.22;5072697;28;20185;-71
2022/04/25 08:30:25;;;;;;;9.47;8.67;;;;;;;6.63;100.00;99938.88;5072709;28;20284;-72
2022/04/25 08:32:51;;;;;;;9.80;8.90;;;;;;;6.55;100.00;99943.09;5072686;28;20286;-72
2022/04/25 08:35:17;;;;;;;10.97;10.07;;;;;;;6.57;100.00;99946.31;5072752;28;20232;-72
2022/04/25 08:37:42;;;;;;;10.90;9.80;;;;;;;6.60;100.00;99954.94;5072390;28;20174;-71
2022/04/25 08:40:09;;;;;;;10.90;9.27;;;;;;;6.72;100.00;99950.66;5072576;28;20178;-73
2022/04/25 08:42:35;;;;;;;9.50;8.50;;;;;;;6.77;100.00;99952.47;5072416;28;20193;-72
2022/04/25 08:45:02;;;;;;;11.73;10.57;;;;;;;6.62;100.00;99955.44;5072793;28;20257;-72
2022/04/25 08:47:32;;;;;;;13.33;12.10;;;;;;;6.64;100.00;99964.91;5072153;28;20627;-72
2022/04/25 08:49:58;;;;;;;12.13;10.93;;;;;;;6.58;100.00;99960.69;5071048;28;20233;-72
2022/04/25 08:52:25;;;;;;;11.83;10.63;;;;;;;6.65;100.00;99954.84;5072281;28;20209;-72
2022/04/25 08:54:53;;;;;;;14.10;12.70;;;;;;;6.57;100.00;99970.72;5072441;28;20599;-72
2022/04/25 08:57:18;;;;;;;15.63;12.80;;;;;;;6.66;100.00;99965.44;5072196;28;20174;-72
2022/04/25 08:59:46;;;;;;;14.37;13.00;;;;;;;6.65;100.00;99974.66;5072222;28;20236;-72
2022/04/25 09:02:12;;;;;;;16.50;14.93;;;;;;;6.73;100.00;99970.47;5071895;28;20182;-72
2022/04/25 09:04:38;;;;;;;13.87;12.60;;;;;;;6.83;100.00;99981.16;5072109;28;20178;-72
2022/04/25 09:07:03;;;;;;;14.17;12.53;;;;;;;6.76;100.00;99989.69;5072136;28;20181;-72
2022/04/25 09:09:29;;;;;;;14.77;13.27;;;;;;;6.73;100.00;99992.19;5071876;28;20724;-72
2022/04/25 09:12:09;;;;;;;18.87;15.33;;;;;;;6.78;100.00;99986.66;5072015;28;20178;-72
2022/04/25 09:14:36;;;;;;;15.43;14.03;;;;;;;6.82;100.00;100001.28;5072241;28;20178;-72
2022/04/25 09:17:03;;;;;;;15.10;13.07;;;;;;;6.99;100.00;100001.53;5071548;28;20178;-72
2022/04/25 09:19:30;;;;;;;16.03;14.47;;;;;;;6.92;100.00;100006.53;5071861;28;20202;-72
2022/04/25 09:21:55;;;;;;;16.67;15.00;;;;;;;6.85;100.00;100006.91;5070535;28;20642;-72
2022/04/25 09:24:27;;;;;;;19.23;16.43;;;;;;;7.03;100.00;100004.44;5071833;28;20177;-72
2022/04/25 09:27:08;;;;;;;26.80;14.27;;;;;;;7.18;100.00;100016.94;5071587;28;20647;-72
2022/04/25 09:29:35;;;;;;;14.50;13.07;;;;;;;7.19;100.00;100018.56;5071912;28;20293;-72
2022/04/25 09:32:01;;;;;;;16.97;14.67;;;;;;;7.11;100.00;100015.44;5071591;28;20179;-72
2022/04/25 09:37:13;;;;;;;15.00;13.53;;;;;;;7.48;100.00;100027.25;5071555;28;20244;-72
2022/04/25 09:39:39;;;;;;;14.13;12.73;;;;;;;7.55;100.00;100027.66;5071442;28;20634;-72
2022/04/25 09:42:05;;;;;;;14.73;13.33;;;;;;;7.42;100.00;100023.03;5071151;28;20184;-72
2022/04/25 09:44:54;;;;;;;16.17;14.67;;;;;;;7.43;100.00;100030.06;5070117;28;20179;-72
2022/04/25 09:47:29;;;;;;;16.37;14.70;;;;;;;7.42;100.00;100033.91;5070978;28;20174;-72
2022/04/25 09:50:01;;;;;;;16.03;14.33;;;;;;;7.32;100.00;100028.66;5071091;28;20234;-72
2022/04/25 09:52:27;;;;;;;16.03;14.33;;;;;;;7.37;100.00;100028.53;5071207;28;20182;-72
2022/04/25 09:54:52;;;;;;;15.00;13.60;;;;;;;7.28;100.00;100033.06;5071145;28;20174;-72
2022/04/25 09:57:31;;;;;;;11.40;10.40;;;;;;;7.32;100.00;100043.03;5070895;28;20674;-72
2022/04/25 09:59:58;;;;;;;13.60;12.30;;;;;;;7.29;100.00;100037.41;5070945;28;20236;-72
2022/04/25 10:02:23;;;;;;;12.87;11.63;;;;;;;7.45;100.00;100038.72;5070774;28;20638;-72
2022/04/25 10:04:49;;;;;;;13.30;11.80;;;;;;;7.32;100.00;100040.31;5071116;28;20170;-72
2022/04/25 10:07:17;;;;;;;13.53;12.40;;;;;;;7.32;100.00;100037.59;5070714;28;20245;-72
2022/04/25 10:09:43;;;;;;;12.20;11.10;;;;;;;7.34;100.00;100050.88;5070831;28;20194;-72
2022/04/25 10:12:09;;;;;;;13.63;12.23;;;;;;;7.03;100.00;100043.28;5069603;28;20251;-72
2022/04/25 10:14:36;;;;;;;13.17;11.77;;;;;;;6.98;100.00;100056.13;5070804;28;20638;-72
2022/04/25 10:17:02;;;;;;;16.93;10.63;;;;;;;6.98;100.00;100062.38;5070321;28;20171;-72
2022/04/25 10:19:29;;;;;;;10.53;9.50;;;;;;;7.11;100.00;100063.53;5070633;28;20174;-72
2022/04/25 10:21:56;;;;;;;10.70;9.57;;;;;;;7.09;100.00;100066.53;5070822;28;20177;-72
2022/04/25 10:24:22;;;;;;;16.27;13.10;;;;;;;7.17;100.00;100062.31;5070766;28;20527;-72
2022/04/25 10:26:48;;;;;;;23.70;15.63;;;;;;;7.14;100.00;100069.16;5070530;28;20179;-72
2022/04/25 10:29:27;;;;;;;9.97;8.97;;;;;;;7.27;100.00;100067.59;5070477;28;20190;-72
2022/04/25 10:31:59;;;;;;;7.87;7.30;;;;;;;7.42;100.00;100071.94;5064246;28;20721;-73
2022/04/25 10:35:04;;;;;;;8.07;7.43;;;;;;;7.64;100.00;100079.41;5062759;28;20590;-72
2022/04/25 10:37:34;;;;;;;9.00;8.10;;;;;;;7.43;100.00;100070.84;5069719;28;20320;-73
2022/04/25 10:40:05;;;;;;;9.23;8.30;;;;;;;7.35;100.00;100074.22;5070275;28;20239;-73
2022/04/25 10:45:15;;;;;;;9.07;8.17;;;;;;;7.38;100.00;100079.09;5070613;28;20926;-73
2022/04/25 10:47:57;;;;;;;8.37;7.57;;;;;;;7.34;100.00;100073.44;5070415;28;20170;-72
2022/04/25 10:50:23;;;;;;;8.77;7.87;;;;;;;7.37;100.00;100080.16;5070576;28;20335;-73
2022/04/25 10:55:33;;;;;;;9.60;8.60;;;;;;;7.61;100.00;100088.97;5070617;28;20170;-73
2022/04/25 10:58:01;;;;;;;9.50;8.50;;;;;;;7.69;100.00;100091.00;5069894;28;20291;-73
2022/04/25 11:00:53;;;;;;;10.17;9.17;;;;;;;7.58;100.00;100091.50;5070380;28;20247;-74
2022/04/25 11:03:23;;;;;;;9.00;8.10;;;;;;;7.61;100.00;100091.69;5066860;28;20197;-72
2022/04/25 11:05:54;;;;;;;8.93;8.03;;;;;;;7.45;100.00;100090.38;5070213;28;20170;-72
2022/04/25 11:08:20;;;;;;;11.37;10.17;;;;;;;7.40;100.00;100093.19;5069942;28;20380;-71
2022/04/25 11:10:59;;;;;;;9.60;8.70;;;;;;;7.42;100.00;100099.13;5070367;28;20166;-72
2022/04/25 11:13:26;;;;;;;15.37;9.37;;;;;;;7.41;100.00;100102.94;5070627;28;20197;-73
2022/04/25 11:15:56;;;;;;;10.43;9.50;;;;;;;7.58;100.00;100100.47;5070213;28;20165;-72
2022/04/25 11:18:30;;;;;;;10.67;9.03;;;;;;;7.40;100.00;100095.91;5068596;28;20178;-73
2022/04/25 11:21:15;;;;;;;10.97;9.13;;;;;;;7.44;100.00;100102.34;5070042;28;20225;-73
2022/04/25 11:23:43;;;;;;;10.57;9.67;;;;;;;7.42;100.00;100099.13;5069932;28;20171;-72
2022/04/25 11:26:11;;;;;;;13.53;9.50;;;;;;;7.56;100.00;100113.56;5069971;28;20167;-72
2022/04/25 11:29:11;;;;;;;9.93;8.93;;;;;;;7.67;100.00;100106.84;5069616;28;20739;-72
2022/04/25 11:31:38;;;;;;;9.57;8.57;;;;;;;7.65;100.00;100109.00;5041328;28;20527;-73
2022/04/25 11:34:11;;;;;;;12.63;8.57;;;;;;;7.84;100.00;100114.41;5069813;28;20638;-73
2022/04/25 11:36:39;;;;;;;10.80;9.80;;;;;;;7.96;100.00;100114.72;5069885;28;20170;-73
2022/04/25 11:41:49;;;;;;;15.10;11.70;;;;;;;7.76;100.00;100124.03;5070063;28;20611;-72
2022/04/25 11:44:14;;;;;;;14.80;12.97;;;;;;;7.70;100.00;100127.16;5069663;28;20178;-73
2022/04/25 11:46:41;;;;;;;30.30;17.17;;;;;;;7.78;100.00;100131.91;5069678;28;20179;-72
2022/04/25 11:49:07;;;;;;;12.73;10.67;;;;;;;7.90;100.00;100134.13;5069571;28;20233;-72
2022/04/25 11:51:40;;;;;;;17.30;11.80;;;;;;;7.91;100.00;100128.38;5069742;28;20185;-72
2022/04/25 11:54:07;;;;;;;9.43;8.53;;;;;;;8.13;100.00;100129.63;5071274;28;20179;-72
2022/04/25 11:56:37;;;;;;;8.73;7.77;;;;;;;7.97;100.00;100132.63;5073543;28;20322;-74
2022/04/25 11:59:13;;;;;;;9.43;7.10;;;;;;;8.24;100.00;100142.69;5073579;28;20174;-72